createdAt,value
2017-12-22T00:01:39.902Z,8.70
2017-12-22T00:04:07.462Z,8.70
2017-12-22T00:06:34.919Z,8.70
2017-12-22T00:09:02.410Z,8.70
2017-12-22T00:11:29.904Z,8.80
2017-12-22T00:13:58.118Z,8.80
2017-12-22T00:16:25.586Z,8.80
2017-12-22T00:18:53.083Z,8.80
2017-12-22T00:21:21.318Z,8.80
2017-12-22T00:23:48.786Z,8.80
2017-12-22T00:26:16.271Z,8.80
2017-12-22T00:28:44.510Z,8.80
2017-12-22T00:31:11.978Z,8.70
2017-12-22T00:33:40.986Z,8.70
2017-12-22T00:36:08.464Z,8.70
2017-12-22T00:38:36.707Z,8.70
2017-12-22T00:41:04.170Z,8.70
2017-12-22T00:43:31.658Z,8.70
2017-12-22T00:46:03.133Z,8.70
2017-12-22T00:48:30.645Z,8.70
2017-12-22T00:50:58.113Z,8.70
2017-12-22T00:53:26.384Z,8.70
2017-12-22T00:55:54.607Z,8.70
2017-12-22T00:58:22.094Z,8.70
2017-12-22T01:00:49.562Z,8.80
2017-12-22T01:03:17.019Z,8.70
2017-12-22T01:05:45.336Z,8.70
2017-12-22T01:08:12.804Z,8.70
2017-12-22T01:10:40.258Z,8.70
2017-12-22T01:13:07.743Z,8.70
2017-12-22T01:15:41.617Z,8.70
2017-12-22T01:18:14.826Z,8.70
2017-12-22T01:20:42.289Z,8.70
2017-12-22T01:23:09.818Z,8.70
2017-12-22T01:25:37.282Z,8.70
2017-12-22T01:28:04.754Z,8.70
2017-12-22T01:30:32.227Z,8.70
2017-12-22T01:32:59.694Z,8.70
2017-12-22T01:35:27.183Z,8.70
2017-12-22T01:37:54.654Z,8.70
2017-12-22T01:40:22.114Z,8.70
2017-12-22T01:42:49.614Z,8.70
2017-12-22T01:47:53.535Z,8.70
2017-12-22T01:50:20.991Z,8.70
2017-12-22T01:52:48.454Z,8.70
2017-12-22T01:55:16.701Z,8.70
2017-12-22T01:57:44.162Z,8.70
2017-12-22T02:00:11.654Z,8.60
2017-12-22T02:02:39.897Z,8.60
2017-12-22T02:05:07.374Z,8.60
2017-12-22T02:07:34.848Z,8.60
2017-12-22T02:10:03.090Z,8.60
2017-12-22T02:12:30.556Z,8.60
2017-12-22T02:14:58.022Z,8.60
2017-12-22T02:17:25.502Z,8.60
2017-12-22T02:19:53.746Z,8.60
2017-12-22T02:22:21.219Z,8.60
2017-12-22T02:24:49.462Z,8.50
2017-12-22T02:27:16.935Z,8.50
2017-12-22T02:29:44.415Z,8.60
2017-12-22T02:32:12.668Z,8.70
2017-12-22T02:34:40.126Z,8.70
2017-12-22T02:37:07.687Z,8.70
2017-12-22T02:39:35.252Z,8.70
2017-12-22T02:42:02.709Z,8.70
2017-12-22T02:44:30.963Z,8.60
2017-12-22T02:46:59.191Z,8.60
2017-12-22T02:49:26.650Z,8.70
2017-12-22T02:51:54.129Z,8.70
2017-12-22T02:54:21.582Z,8.70
2017-12-22T02:56:49.055Z,8.70
2017-12-22T02:59:17.329Z,8.70
2017-12-22T03:01:44.791Z,8.70
2017-12-22T03:04:12.266Z,8.80
2017-12-22T03:06:39.731Z,8.70
2017-12-22T03:09:07.198Z,8.70
2017-12-22T03:11:35.434Z,8.70
2017-12-22T03:14:02.930Z,8.60
2017-12-22T03:16:31.156Z,8.70
2017-12-22T03:18:58.616Z,8.70
2017-12-22T03:21:26.094Z,8.70
2017-12-22T03:23:53.554Z,8.70
2017-12-22T03:26:21.039Z,8.70
2017-12-22T03:28:48.501Z,8.70
2017-12-22T03:31:16.073Z,8.70
2017-12-22T03:33:43.518Z,8.70
2017-12-22T03:36:10.988Z,8.60
2017-12-22T03:38:38.473Z,8.60
2017-12-22T03:41:05.944Z,8.60
2017-12-22T03:43:33.410Z,8.60
2017-12-22T03:46:00.870Z,8.60
2017-12-22T03:48:29.094Z,8.70
2017-12-22T03:50:56.579Z,8.70
2017-12-22T03:53:24.058Z,8.80
2017-12-22T03:55:52.282Z,8.80
2017-12-22T03:58:19.742Z,8.70
2017-12-22T04:00:47.223Z,8.70
2017-12-22T04:03:14.691Z,8.70
2017-12-22T04:05:42.158Z,8.70
2017-12-22T04:08:10.377Z,8.70
2017-12-22T04:10:37.865Z,8.70
2017-12-22T04:13:05.320Z,8.70
2017-12-22T04:15:32.793Z,8.70
2017-12-22T04:18:00.266Z,8.70
2017-12-22T04:20:28.494Z,8.70
2017-12-22T04:22:55.969Z,8.70
2017-12-22T04:25:23.470Z,8.70
2017-12-22T04:27:50.930Z,8.70
2017-12-22T04:30:18.406Z,8.70
2017-12-22T04:32:45.883Z,8.70
2017-12-22T04:35:13.417Z,8.70
2017-12-22T04:37:40.863Z,8.70
2017-12-22T04:40:08.335Z,8.70
2017-12-22T04:42:35.791Z,8.70
2017-12-22T04:45:03.246Z,8.70
2017-12-22T04:47:30.723Z,8.70
2017-12-22T04:49:58.178Z,8.70
2017-12-22T04:52:25.661Z,8.80
2017-12-22T04:54:53.127Z,8.80
2017-12-22T04:57:20.599Z,8.70
2017-12-22T04:59:48.823Z,8.70
2017-12-22T05:02:16.315Z,8.60
2017-12-22T05:04:44.581Z,8.60
2017-12-22T05:07:12.035Z,8.60
2017-12-22T05:09:40.270Z,8.60
2017-12-22T05:12:07.730Z,8.60
2017-12-22T05:14:35.222Z,8.70
2017-12-22T05:17:02.682Z,8.70
2017-12-22T05:19:30.134Z,8.70
2017-12-22T05:21:57.603Z,8.80
2017-12-22T05:24:25.835Z,8.80
2017-12-22T05:26:53.290Z,8.80
2017-12-22T05:29:20.763Z,8.80
2017-12-22T05:31:48.214Z,8.80
2017-12-22T05:34:15.696Z,8.80
2017-12-22T05:36:43.155Z,8.80
2017-12-22T05:39:10.622Z,8.90
2017-12-22T05:41:38.863Z,8.80
2017-12-22T05:44:06.314Z,8.80
2017-12-22T05:46:33.783Z,8.80
2017-12-22T05:49:01.237Z,8.80
2017-12-22T05:51:28.710Z,8.80
2017-12-22T05:53:56.178Z,8.80
2017-12-22T05:56:24.440Z,8.80
2017-12-22T05:58:51.878Z,8.80
2017-12-22T06:01:19.342Z,8.80
2017-12-22T06:03:47.586Z,8.80
2017-12-22T06:06:15.059Z,8.80
2017-12-22T06:08:42.543Z,8.80
2017-12-22T06:11:10.014Z,8.80
2017-12-22T06:13:38.239Z,8.80
2017-12-22T06:16:05.709Z,8.80
2017-12-22T06:18:33.175Z,8.80
2017-12-22T06:21:01.412Z,8.80
2017-12-22T06:23:28.882Z,8.80
2017-12-22T06:25:56.340Z,8.80
2017-12-22T06:28:23.818Z,8.80
2017-12-22T06:30:51.301Z,8.80
2017-12-22T06:33:19.523Z,8.80
2017-12-22T06:35:46.999Z,8.70
2017-12-22T06:38:14.513Z,8.80
2017-12-22T06:40:41.926Z,8.80
2017-12-22T06:43:09.398Z,8.80
2017-12-22T06:45:37.624Z,8.80
2017-12-22T06:48:05.098Z,8.80
2017-12-22T06:50:32.559Z,8.80
2017-12-22T06:53:00.014Z,8.80
2017-12-22T06:55:27.482Z,8.80
2017-12-22T06:57:54.940Z,8.80
2017-12-22T07:00:22.415Z,8.90
2017-12-22T07:02:50.659Z,8.90
2017-12-22T07:05:18.891Z,8.90
2017-12-22T07:07:46.362Z,8.90
2017-12-22T07:10:13.819Z,8.90
2017-12-22T07:12:41.307Z,9.00
2017-12-22T07:15:08.754Z,8.90
2017-12-22T07:17:36.231Z,8.90
2017-12-22T07:20:05.190Z,9.10
2017-12-22T07:22:32.682Z,9.10
2017-12-22T07:25:00.153Z,9.10
2017-12-22T07:27:28.378Z,9.20
2017-12-22T07:29:55.854Z,9.10
2017-12-22T07:32:23.319Z,9.20
2017-12-22T07:34:50.874Z,9.20
2017-12-22T07:37:19.311Z,9.20
2017-12-22T07:39:46.795Z,9.30
2017-12-22T07:42:14.274Z,9.30
2017-12-22T07:44:41.746Z,9.20
2017-12-22T07:47:09.970Z,9.30
2017-12-22T07:49:37.438Z,9.30
2017-12-22T07:52:04.905Z,9.30
2017-12-22T07:54:32.379Z,9.30
2017-12-22T07:57:01.187Z,9.30
2017-12-22T07:59:28.659Z,9.30
2017-12-22T08:01:56.159Z,9.40
2017-12-22T08:04:23.655Z,9.40
2017-12-22T08:06:51.869Z,9.30
2017-12-22T08:09:19.347Z,9.30
2017-12-22T08:11:46.838Z,9.30
2017-12-22T08:14:15.066Z,9.30
2017-12-22T08:16:42.524Z,9.30
2017-12-22T08:19:10.003Z,9.30
2017-12-22T08:21:37.475Z,9.30
2017-12-22T08:24:05.710Z,9.30
2017-12-22T08:26:33.186Z,9.30
2017-12-22T08:29:00.678Z,9.30
2017-12-22T08:31:28.198Z,9.40
2017-12-22T08:33:55.618Z,9.40
2017-12-22T08:36:23.092Z,9.40
2017-12-22T08:38:50.552Z,9.40
2017-12-22T08:41:18.023Z,9.40
2017-12-22T08:43:46.256Z,9.50
2017-12-22T08:46:13.726Z,9.40
2017-12-22T08:48:41.194Z,9.40
2017-12-22T08:51:08.666Z,9.50
2017-12-22T08:53:36.955Z,9.50
2017-12-22T08:56:04.415Z,9.50
2017-12-22T08:58:32.684Z,9.50
2017-12-22T09:01:00.158Z,9.50
2017-12-22T09:03:28.405Z,9.60
2017-12-22T09:05:55.862Z,9.50
2017-12-22T09:08:23.326Z,9.50
2017-12-22T09:10:50.802Z,9.60
2017-12-22T09:13:19.034Z,9.60
2017-12-22T09:15:46.514Z,9.60
2017-12-22T09:18:13.974Z,9.70
2017-12-22T09:20:41.448Z,9.70
2017-12-22T09:23:10.540Z,9.80
2017-12-22T09:25:38.770Z,9.80
2017-12-22T09:28:06.236Z,9.80
2017-12-22T09:30:33.702Z,9.70
2017-12-22T09:33:01.181Z,9.70
2017-12-22T09:35:29.406Z,9.60
2017-12-22T09:37:56.886Z,9.60
2017-12-22T09:40:24.366Z,9.60
2017-12-22T09:42:52.635Z,9.60
2017-12-22T09:45:20.098Z,9.60
2017-12-22T09:47:48.328Z,9.70
2017-12-22T09:50:15.813Z,9.60
2017-12-22T09:52:43.303Z,9.70
2017-12-22T09:55:11.525Z,9.70
2017-12-22T09:57:39.003Z,9.60
2017-12-22T10:00:06.474Z,9.70
2017-12-22T10:02:34.754Z,9.70
2017-12-22T10:05:02.985Z,9.70
2017-12-22T10:07:30.442Z,9.70
2017-12-22T10:09:57.979Z,9.70
2017-12-22T10:12:25.536Z,9.70
2017-12-22T10:14:53.002Z,9.70
2017-12-22T10:17:20.459Z,9.70
2017-12-22T10:19:47.930Z,9.70
2017-12-22T10:22:15.395Z,9.70
2017-12-22T10:24:42.882Z,9.70
2017-12-22T10:27:11.111Z,9.70
2017-12-22T10:29:38.663Z,9.70
2017-12-22T10:32:06.133Z,9.70
2017-12-22T10:34:33.619Z,9.70
2017-12-22T10:37:01.454Z,9.70
2017-12-22T10:39:28.902Z,9.70
2017-12-22T10:41:56.382Z,9.70
2017-12-22T10:44:23.848Z,9.70
2017-12-22T10:46:52.094Z,9.70
2017-12-22T10:49:19.569Z,9.70
2017-12-22T10:51:47.026Z,9.70
2017-12-22T10:54:14.483Z,9.80
2017-12-22T10:56:41.980Z,9.80
2017-12-22T10:59:10.196Z,9.80
2017-12-22T11:01:37.663Z,9.80
2017-12-22T11:04:05.139Z,9.80
2017-12-22T11:06:32.627Z,9.80
2017-12-22T11:09:00.088Z,9.80
2017-12-22T11:11:27.562Z,9.80
2017-12-22T11:13:55.031Z,9.80
2017-12-22T11:16:22.487Z,9.90
2017-12-22T11:18:49.959Z,9.90
2017-12-22T11:21:17.426Z,9.90
2017-12-22T11:23:44.908Z,9.90
2017-12-22T11:26:13.139Z,9.90
2017-12-22T11:28:40.597Z,9.90
2017-12-22T11:31:08.074Z,9.90
2017-12-22T11:33:36.305Z,9.80
2017-12-22T11:36:03.787Z,9.80
2017-12-22T11:38:32.030Z,9.80
2017-12-22T11:40:59.487Z,9.90
2017-12-22T11:43:26.978Z,9.90
2017-12-22T11:45:54.462Z,9.90
2017-12-22T11:48:22.712Z,9.80
2017-12-22T11:50:50.179Z,9.80
2017-12-22T11:53:17.646Z,9.90
2017-12-22T11:55:45.898Z,9.80
2017-12-22T11:58:13.363Z,9.90
2017-12-22T12:00:40.830Z,9.90
2017-12-22T12:03:08.299Z,9.90
2017-12-22T12:05:35.767Z,10.00
2017-12-22T12:08:03.249Z,10.00
2017-12-22T12:10:30.761Z,10.00
2017-12-22T12:12:58.250Z,10.00
2017-12-22T12:15:25.743Z,10.00
2017-12-22T12:17:53.222Z,10.00
2017-12-22T12:20:20.682Z,10.00
2017-12-22T12:22:48.151Z,10.00
2017-12-22T12:25:16.427Z,9.90
2017-12-22T12:27:44.654Z,9.90
2017-12-22T12:30:12.110Z,9.90
2017-12-22T12:32:39.595Z,9.90
2017-12-22T12:35:07.828Z,9.90
2017-12-22T12:37:35.322Z,9.90
2017-12-22T12:40:03.244Z,9.90
2017-12-22T12:42:30.719Z,9.90
2017-12-22T12:44:58.170Z,9.90
2017-12-22T12:47:25.647Z,9.80
2017-12-22T12:49:53.111Z,9.90
2017-12-22T12:52:21.338Z,9.90
2017-12-22T12:54:48.813Z,9.90
2017-12-22T12:57:16.267Z,9.90
2017-12-22T12:59:43.747Z,9.90
2017-12-22T13:02:11.214Z,9.80
2017-12-22T13:04:38.698Z,9.80
2017-12-22T13:07:06.931Z,9.80
2017-12-22T13:09:34.387Z,9.80
2017-12-22T13:12:01.863Z,9.70
2017-12-22T13:14:29.334Z,9.70
2017-12-22T13:16:57.578Z,9.60
2017-12-22T13:19:25.053Z,9.60
2017-12-22T13:21:52.535Z,9.60
2017-12-22T13:24:20.763Z,9.60
2017-12-22T13:26:48.236Z,9.50
2017-12-22T13:29:15.695Z,9.50
2017-12-22T13:31:43.182Z,9.60
2017-12-22T13:34:11.410Z,9.50
2017-12-22T13:36:39.811Z,9.50
2017-12-22T13:39:07.330Z,9.60
2017-12-22T13:41:35.532Z,9.50
2017-12-22T13:44:03.011Z,9.50
2017-12-22T13:46:31.251Z,9.50
2017-12-22T13:48:58.715Z,9.40
2017-12-22T13:51:26.193Z,9.40
2017-12-22T13:53:53.664Z,9.40
2017-12-22T13:56:22.625Z,9.50
2017-12-22T13:58:50.098Z,9.50
2017-12-22T14:01:18.336Z,9.50
2017-12-22T14:03:45.799Z,9.50
2017-12-22T14:06:13.271Z,9.50
2017-12-22T14:08:40.747Z,9.50
2017-12-22T14:11:09.034Z,9.60
2017-12-22T14:13:37.281Z,9.50
2017-12-22T14:16:04.751Z,9.50
2017-12-22T14:18:32.985Z,9.60
2017-12-22T14:21:00.467Z,9.50
2017-12-22T14:23:27.942Z,9.50
2017-12-22T14:25:55.419Z,9.50
2017-12-22T14:28:22.872Z,9.40
2017-12-22T14:30:50.346Z,9.40
2017-12-22T14:33:17.826Z,9.50
2017-12-22T14:35:45.304Z,9.40
2017-12-22T14:38:12.792Z,9.40
2017-12-22T14:40:40.291Z,9.30
2017-12-22T14:43:07.766Z,9.40
2017-12-22T14:45:35.238Z,9.30
2017-12-22T14:48:02.741Z,9.30
2017-12-22T14:50:30.204Z,9.30
2017-12-22T14:52:57.762Z,9.30
2017-12-22T14:55:25.235Z,9.30
2017-12-22T14:57:52.684Z,9.30
2017-12-22T15:00:20.154Z,9.30
2017-12-22T15:02:47.615Z,9.30
2017-12-22T15:05:15.090Z,9.30
2017-12-22T15:07:42.558Z,9.20
2017-12-22T15:10:10.802Z,9.20
2017-12-22T15:12:39.626Z,9.20
2017-12-22T15:15:07.845Z,9.30
2017-12-22T15:17:35.319Z,9.20
2017-12-22T15:20:03.251Z,9.20
2017-12-22T15:22:30.710Z,9.30
2017-12-22T15:24:58.183Z,9.30
2017-12-22T15:27:25.639Z,9.20
2017-12-22T15:29:53.118Z,9.20
2017-12-22T15:32:20.579Z,9.20
2017-12-22T15:34:48.042Z,9.20
2017-12-22T15:37:15.526Z,9.20
2017-12-22T15:39:43.762Z,9.20
2017-12-22T15:42:11.270Z,9.20
2017-12-22T15:44:39.477Z,9.10
2017-12-22T15:47:06.964Z,9.10
2017-12-22T15:49:34.424Z,9.10
2017-12-22T15:52:01.906Z,9.10
2017-12-22T15:54:30.146Z,9.10
2017-12-22T15:56:57.612Z,9.10
2017-12-22T15:59:25.122Z,9.10
2017-12-22T16:01:52.595Z,9.10
2017-12-22T16:04:20.085Z,9.10
2017-12-22T16:06:47.550Z,9.10
2017-12-22T16:09:15.002Z,9.10
2017-12-22T16:11:42.479Z,9.10
2017-12-22T16:14:16.395Z,9.10
2017-12-22T16:16:43.879Z,9.10
2017-12-22T16:19:11.352Z,9.10
2017-12-22T16:21:38.822Z,9.10
2017-12-22T16:24:06.290Z,9.10
2017-12-22T16:26:33.786Z,9.10
2017-12-22T16:29:01.263Z,9.10
2017-12-22T16:31:28.742Z,9.10
2017-12-22T16:33:56.221Z,9.10
2017-12-22T16:36:23.699Z,9.10
2017-12-22T16:38:51.930Z,9.10
2017-12-22T16:41:19.398Z,9.00
2017-12-22T16:43:46.944Z,9.00
2017-12-22T16:46:14.365Z,9.10
2017-12-22T16:48:41.834Z,9.10
2017-12-22T16:51:09.298Z,9.00
2017-12-22T16:53:36.763Z,9.00
2017-12-22T16:56:04.239Z,9.10
2017-12-22T16:58:31.706Z,9.10
2017-12-22T17:00:59.963Z,9.10
2017-12-22T17:03:27.459Z,9.10
2017-12-22T17:05:55.702Z,9.10
2017-12-22T17:08:23.170Z,9.10
2017-12-22T17:10:51.418Z,9.10
2017-12-22T17:13:18.878Z,9.10
2017-12-22T17:15:46.353Z,9.10
2017-12-22T17:18:13.822Z,9.10
2017-12-22T17:20:42.107Z,9.10
2017-12-22T17:23:09.794Z,9.10
2017-12-22T17:25:37.283Z,9.10
2017-12-22T17:28:04.744Z,9.00
2017-12-22T17:30:32.203Z,9.10
2017-12-22T17:32:59.678Z,9.10
2017-12-22T17:35:27.155Z,9.10
2017-12-22T17:37:55.398Z,9.00
2017-12-22T17:40:22.863Z,9.00
2017-12-22T17:42:50.329Z,9.00
2017-12-22T17:45:18.575Z,9.00
2017-12-22T17:47:46.110Z,9.00
2017-12-22T17:50:13.597Z,9.00
2017-12-22T17:52:41.054Z,9.00
2017-12-22T17:55:08.562Z,9.10
2017-12-22T17:57:36.124Z,9.00
2017-12-22T18:00:04.316Z,9.00
2017-12-22T18:02:31.798Z,9.00
2017-12-22T18:04:59.251Z,9.00
2017-12-22T18:07:26.743Z,9.00
2017-12-22T18:09:54.989Z,9.00
2017-12-22T18:12:22.463Z,9.00
2017-12-22T18:14:50.710Z,9.00
2017-12-22T18:17:18.171Z,8.90
2017-12-22T18:19:45.645Z,8.90
2017-12-22T18:22:13.888Z,9.00
2017-12-22T18:24:41.350Z,9.00
2017-12-22T18:27:08.811Z,9.00
2017-12-22T18:29:36.290Z,9.00
2017-12-22T18:32:04.538Z,8.90
2017-12-22T18:34:32.011Z,8.90
2017-12-22T18:36:59.520Z,9.00
2017-12-22T18:39:26.975Z,9.00
2017-12-22T18:41:54.463Z,9.00
2017-12-22T18:44:21.938Z,9.00
2017-12-22T18:46:49.410Z,9.00
2017-12-22T18:49:16.882Z,8.90
2017-12-22T18:51:44.366Z,9.00
2017-12-22T18:54:11.844Z,8.90
2017-12-22T18:56:39.330Z,8.90
2017-12-22T18:59:07.558Z,8.90
2017-12-22T19:01:35.023Z,8.90
2017-12-22T19:04:02.488Z,8.90
2017-12-22T19:06:30.019Z,8.90
2017-12-22T19:08:57.479Z,8.90
2017-12-22T19:11:24.954Z,9.00
2017-12-22T19:13:52.423Z,8.90
2017-12-22T19:16:19.903Z,8.90
2017-12-22T19:18:47.379Z,9.00
2017-12-22T19:21:15.634Z,8.90
2017-12-22T19:23:43.134Z,8.90
2017-12-22T19:26:10.606Z,8.90
2017-12-22T19:28:38.066Z,8.90
2017-12-22T19:31:05.554Z,8.90
2017-12-22T19:33:33.045Z,8.90
2017-12-22T19:36:00.510Z,8.90
2017-12-22T19:38:27.991Z,8.90
2017-12-22T19:40:55.452Z,8.90
2017-12-22T19:43:22.952Z,8.90
2017-12-22T19:45:51.182Z,8.90
2017-12-22T19:48:18.655Z,8.90
2017-12-22T19:50:46.127Z,8.90
2017-12-22T19:53:14.360Z,8.80
2017-12-22T19:55:41.908Z,8.90
2017-12-22T19:58:09.363Z,8.90
2017-12-22T20:00:36.840Z,8.80
2017-12-22T20:03:04.327Z,8.80
2017-12-22T20:05:31.808Z,8.80
2017-12-22T20:08:00.045Z,8.80
2017-12-22T20:10:27.523Z,8.80
2017-12-22T20:12:54.982Z,8.90
2017-12-22T20:15:23.219Z,8.80
2017-12-22T20:17:50.699Z,8.80
2017-12-22T20:20:18.479Z,8.80
2017-12-22T20:22:45.982Z,8.80
2017-12-22T20:25:13.468Z,8.90
2017-12-22T20:27:43.884Z,8.80
2017-12-22T20:30:11.370Z,8.80
2017-12-22T20:32:38.844Z,8.80
2017-12-22T20:35:07.122Z,8.80
2017-12-22T20:37:34.607Z,8.80
2017-12-22T20:40:02.347Z,8.90
2017-12-22T20:42:30.641Z,8.80
2017-12-22T20:44:58.118Z,8.80
2017-12-22T20:47:25.599Z,8.80
2017-12-22T20:49:53.084Z,8.80
2017-12-22T20:52:21.328Z,8.90
2017-12-22T20:54:48.843Z,8.90
2017-12-22T20:57:16.315Z,8.90
2017-12-22T20:59:43.791Z,8.90
2017-12-22T21:02:11.259Z,8.80
2017-12-22T21:04:38.727Z,8.90
2017-12-22T21:07:06.211Z,8.90
2017-12-22T21:09:33.688Z,8.80
2017-12-22T21:12:01.160Z,8.80
2017-12-22T21:14:28.637Z,8.80
2017-12-22T21:16:56.106Z,8.80
2017-12-22T21:19:23.583Z,8.80
2017-12-22T21:21:51.808Z,8.80
2017-12-22T21:24:19.290Z,8.80
2017-12-22T21:26:46.763Z,8.80
2017-12-22T21:29:15.018Z,8.70
2017-12-22T21:31:42.529Z,8.70
2017-12-22T21:34:09.991Z,8.80
2017-12-22T21:36:37.466Z,8.80
2017-12-22T21:39:04.938Z,8.80
2017-12-22T21:41:32.415Z,8.80
2017-12-22T21:44:00.733Z,8.80
2017-12-22T21:46:28.190Z,8.80
2017-12-22T21:48:55.653Z,8.80
2017-12-22T21:51:23.130Z,8.80
2017-12-22T21:53:50.609Z,8.80
2017-12-22T21:56:19.577Z,8.80
2017-12-22T21:58:47.047Z,8.80
2017-12-22T22:01:14.534Z,8.80
2017-12-22T22:03:42.793Z,8.90
2017-12-22T22:06:11.056Z,8.80
2017-12-22T22:08:38.519Z,8.80
2017-12-22T22:11:05.997Z,8.80
2017-12-22T22:13:34.230Z,8.80
2017-12-22T22:16:01.695Z,8.80
2017-12-22T22:18:29.179Z,8.90
2017-12-22T22:20:57.431Z,8.80
2017-12-22T22:23:25.766Z,8.80
2017-12-22T22:25:53.227Z,8.80
2017-12-22T22:28:20.707Z,8.80
2017-12-22T22:30:48.159Z,8.80
2017-12-22T22:33:15.645Z,8.80
2017-12-22T22:35:43.099Z,8.90
2017-12-22T22:38:10.579Z,8.90
2017-12-22T22:40:38.815Z,9.00
2017-12-22T22:43:06.291Z,8.90
2017-12-22T22:45:35.262Z,8.90
2017-12-22T22:48:02.723Z,8.90
2017-12-22T22:50:30.207Z,8.90
2017-12-22T22:52:58.437Z,8.90
2017-12-22T22:55:25.974Z,8.90
2017-12-22T22:57:53.487Z,8.90
2017-12-22T23:00:20.950Z,8.90
2017-12-22T23:02:49.191Z,8.90
2017-12-22T23:05:16.646Z,8.90
2017-12-22T23:07:44.175Z,8.80
2017-12-22T23:10:11.627Z,8.80
2017-12-22T23:12:39.114Z,8.90
2017-12-22T23:15:06.625Z,8.90
2017-12-22T23:17:34.086Z,8.90
2017-12-22T23:20:01.555Z,8.80
2017-12-22T23:22:29.069Z,8.80
2017-12-22T23:24:56.596Z,8.80
2017-12-22T23:27:24.067Z,8.80
2017-12-22T23:29:51.548Z,8.80
2017-12-22T23:32:19.798Z,8.80
2017-12-22T23:34:47.263Z,8.80
2017-12-22T23:37:15.499Z,8.80
2017-12-22T23:39:42.980Z,8.80
2017-12-22T23:42:10.459Z,8.80
2017-12-22T23:44:37.919Z,8.80
2017-12-22T23:47:05.421Z,8.80
2017-12-22T23:49:32.902Z,8.80
2017-12-22T23:52:00.351Z,8.80
2017-12-22T23:54:29.023Z,8.80
2017-12-22T23:56:56.607Z,8.80
2017-12-22T23:59:24.082Z,8.80
